Time;durP1;ratioP1;P1;durP2;ratioP2;P2;SDS_P1;SDS_P2;PMS_P1;PMS_P2;Temp;Humidity;BMP_temperature;BMP_pressure;BME280_temperature;BME280_humidity;BME280_pressure;Samples;Min_cycle;Max_cycle;Signal;HPM_P1;HPM_P2
2023/03/08 00:02:14;;;;;;;30.75;18.30;;;;;;;8.10;100.00;99610.91;4999534;28;20500;-70
2023/03/08 00:04:40;;;;;;;29.52;20.90;;;;;;;8.11;100.00;99724.97;5003029;28;20050;-72
2023/03/08 00:07:05;;;;;;;31.52;21.40;;;;;;;7.99;100.00;99702.34;5003053;28;20049;-72
2023/03/08 00:09:30;;;;;;;33.53;21.13;;;;;;;7.26;100.00;99580.56;5004001;28;20117;-71
2023/03/08 00:11:56;;;;;;;28.38;19.38;;;;;;;7.36;100.00;99576.19;5002127;28;20041;-71
2023/03/08 00:14:21;;;;;;;39.50;22.63;;;;;;;7.78;100.00;99616.19;4999486;28;20051;-70
2023/03/08 00:16:47;;;;;;;31.08;20.85;;;;;;;7.93;100.00;99638.78;4997117;28;20153;-71
2023/03/08 00:19:13;;;;;;;34.15;22.10;;;;;;;7.70;100.00;99638.81;5001602;28;20124;-70
2023/03/08 00:21:39;;;;;;;29.95;20.20;;;;;;;7.50;100.00;99584.88;5001796;28;20112;-71
2023/03/08 00:24:04;;;;;;;32.72;20.45;;;;;;;7.97;100.00;99687.56;5003311;28;20042;-71
2023/03/08 00:26:30;;;;;;;28.27;21.45;;;;;;;8.08;100.00;99688.41;5003482;28;20045;-70
2023/03/08 00:28:55;;;;;;;42.72;20.80;;;;;;;8.08;100.00;99690.13;4999741;28;20118;-70
2023/03/08 00:31:21;;;;;;;36.28;22.30;;;;;;;8.31;100.00;99714.50;4999646;28;20390;-71
2023/03/08 00:33:47;;;;;;;27.98;20.40;;;;;;;8.10;100.00;99719.75;5005422;28;20533;-69
2023/03/08 00:36:15;;;;;;;42.53;24.58;;;;;;;7.97;100.00;99711.06;4999567;28;20041;-69
2023/03/08 00:38:41;;;;;;;36.35;24.52;;;;;;;6.90;100.00;99616.16;5002720;28;20046;-72
2023/03/08 00:41:07;;;;;;;34.10;22.85;;;;;;;7.49;100.00;99677.13;5005442;28;20497;-71
2023/03/08 00:43:33;;;;;;;36.38;21.73;;;;;;;7.78;100.00;99710.19;4997653;28;20042;-72
2023/03/08 00:45:59;;;;;;;26.55;18.55;;;;;;;6.93;100.00;99576.16;4993824;28;20061;-73
2023/03/08 00:48:24;;;;;;;38.75;22.63;;;;;;;7.00;100.00;99571.84;5000064;28;20510;-72
2023/03/08 00:50:50;;;;;;;37.30;23.10;;;;;;;7.66;100.00;99710.22;5003973;28;20046;-72
2023/03/08 00:53:16;;;;;;;32.20;23.95;;;;;;;6.86;100.00;99597.88;4990680;28;20046;-70
2023/03/08 00:55:49;;;;;;;31.27;24.90;;;;;;;7.76;100.00;99693.66;5002404;28;20064;-71
2023/03/08 00:58:15;;;;;;;34.10;24.08;;;;;;;7.58;100.00;99682.31;4991997;28;20108;-71
2023/03/08 01:00:41;;;;;;;33.88;24.30;;;;;;;7.53;100.00;99671.00;5000941;28;20451;-70
2023/03/08 01:03:06;;;;;;;43.15;25.15;;;;;;;6.87;100.00;99584.88;5004579;28;20072;-70
2023/03/08 01:05:31;;;;;;;32.95;23.20;;;;;;;7.35;100.00;99690.16;5003596;28;20068;-74
2023/03/08 01:07:57;;;;;;;33.65;23.23;;;;;;;7.07;100.00;99634.47;5008982;28;20045;-72
2023/03/08 01:10:22;;;;;;;29.30;23.17;;;;;;;7.18;100.00;99687.50;4999778;28;20054;-71
2023/03/08 01:12:48;;;;;;;41.60;25.27;;;;;;;6.72;100.00;99574.44;4994892;28;20050;-71
2023/03/08 01:15:13;;;;;;;39.80;27.13;;;;;;;6.85;100.00;99570.94;5003316;28;20030;-71
2023/03/08 01:17:39;;;;;;;33.97;24.08;;;;;;;6.58;100.00;99550.94;4998377;28;20409;-71
2023/03/08 01:20:06;;;;;;;43.17;24.88;;;;;;;7.22;100.00;99638.81;5005101;28;20057;-74
2023/03/08 01:22:31;;;;;;;36.90;26.10;;;;;;;6.86;100.00;99597.88;5003326;28;20046;-71
2023/03/08 01:24:57;;;;;;;42.85;29.50;;;;;;;7.00;100.00;99679.66;5003560;28;20479;-69
2023/03/08 01:27:22;;;;;;;37.17;28.13;;;;;;;7.19;100.00;99667.53;4995223;28;20478;-71
2023/03/08 01:29:48;;;;;;;39.90;26.95;;;;;;;6.53;100.00;99542.22;4990820;28;20066;-70
2023/03/08 01:32:13;;;;;;;37.03;28.42;;;;;;;7.33;100.00;99675.38;4997133;28;20057;-71
2023/03/08 01:34:39;;;;;;;36.70;26.35;;;;;;;7.31;100.00;99670.16;5003000;28;20850;-70
2023/03/08 01:37:04;;;;;;;42.83;26.85;;;;;;;6.54;100.00;99546.56;4997101;28;20038;-71
2023/03/08 01:39:30;;;;;;;44.90;28.67;;;;;;;7.08;100.00;99622.28;4991059;28;20033;-72
2023/03/08 01:41:56;;;;;;;36.45;27.33;;;;;;;7.00;100.00;99645.75;4995259;28;20042;-70
2023/03/08 01:44:21;;;;;;;38.40;29.33;;;;;;;6.54;100.00;99632.56;5007249;28;20573;-73
2023/03/08 01:46:48;;;;;;;38.22;26.38;;;;;;;6.90;100.00;99628.31;4995504;28;20042;-69
2023/03/08 01:49:18;;;;;;;45.42;30.35;;;;;;;7.04;100.00;99644.88;5000597;28;20092;-71
2023/03/08 01:51:55;;;;;;;51.05;31.42;;;;;;;7.15;100.00;99647.50;4998335;28;20041;-70
2023/03/08 01:54:31;;;;;;;41.13;29.50;;;;;;;6.76;100.00;99570.94;5000139;28;20201;-72
2023/03/08 01:57:14;;;;;;;46.58;29.35;;;;;;;7.33;100.00;99680.59;5009180;28;20046;-68
2023/03/08 01:59:41;;;;;;;44.33;28.47;;;;;;;6.37;100.00;99545.63;5010697;28;20045;-70
2023/03/08 02:02:06;;;;;;;37.53;28.48;;;;;;;7.09;100.00;99674.44;4999844;28;20042;-70
2023/03/08 02:04:32;;;;;;;37.28;28.77;;;;;;;5.89;100.00;99519.41;5006671;28;20823;-70
2023/03/08 02:06:58;;;;;;;48.92;31.60;;;;;;;6.31;100.00;99586.44;4993323;28;20457;-70
2023/03/08 02:09:24;;;;;;;46.50;30.40;;;;;;;6.34;100.00;99556.94;5007810;28;20033;-71
2023/03/08 02:11:50;;;;;;;55.58;29.92;;;;;;;6.50;100.00;99552.63;4997632;28;20049;-69
2023/03/08 02:14:16;;;;;;;42.38;30.88;;;;;;;5.99;100.00;99526.41;5000949;28;20040;-70
2023/03/08 02:16:42;;;;;;;45.47;29.17;;;;;;;5.95;100.00;99545.50;4998710;28;23755;-70
2023/03/08 02:19:16;;;;;;;51.90;33.22;;;;;;;6.72;100.00;99650.03;5000202;28;20042;-71
2023/03/08 02:21:41;;;;;;;46.80;32.03;;;;;;;6.75;100.00;99632.63;4995821;28;20027;-71
2023/03/08 02:24:21;;;;;;;46.33;31.27;;;;;;;6.35;100.00;99626.44;5004389;28;20050;-71
2023/03/08 02:26:47;;;;;;;42.17;32.45;;;;;;;5.98;100.00;99545.50;4998204;28;20534;-72
2023/03/08 02:29:13;;;;;;;43.95;33.33;;;;;;;6.54;100.00;99623.00;5001542;28;20093;-68
2023/03/08 02:31:39;;;;;;;56.10;33.25;;;;;;;5.91;100.00;99510.72;5004022;28;20042;-71
2023/03/08 02:34:05;;;;;;;52.72;29.67;;;;;;;6.40;100.00;99624.69;4997522;28;20061;-71
2023/03/08 02:36:30;;;;;;;49.85;32.50;;;;;;;5.74;100.00;99511.53;5002883;28;20029;-71
2023/03/08 02:38:56;;;;;;;49.22;31.92;;;;;;;6.12;100.00;99579.44;5003921;28;20073;-72
2023/03/08 02:41:21;;;;;;;47.20;31.50;;;;;;;6.68;100.00;99663.91;5002125;28;20104;-75
2023/03/08 02:43:47;;;;;;;43.58;33.22;;;;;;;6.66;100.00;99655.22;5007171;28;20137;-71
2023/03/08 02:46:13;;;;;;;46.95;32.90;;;;;;;6.02;100.00;99549.88;5003957;28;20411;-72
2023/03/08 02:48:38;;;;;;;50.55;34.70;;;;;;;5.69;100.00;99532.34;4998262;28;20044;-73
2023/03/08 02:51:04;;;;;;;47.42;31.77;;;;;;;5.73;100.00;99552.28;5005595;28;20058;-71
2023/03/08 02:53:29;;;;;;;45.67;32.58;;;;;;;6.42;100.00;99669.03;4996746;28;20100;-71
2023/03/08 02:55:55;;;;;;;51.28;31.73;;;;;;;5.61;100.00;99516.66;5003516;28;20069;-71
2023/03/08 02:58:21;;;;;;;48.60;33.75;;;;;;;6.38;100.00;99631.63;5007295;28;20054;-69
2023/03/08 03:00:46;;;;;;;50.00;33.40;;;;;;;5.89;100.00;99545.44;5006396;28;20529;-69
2023/03/08 03:03:12;;;;;;;43.70;34.63;;;;;;;6.30;100.00;99654.19;5006341;28;20034;-71
2023/03/08 03:05:44;;;;;;;47.42;23.45;;;;;;;5.86;100.00;99545.44;5001543;28;20180;-72
2023/03/08 03:08:10;;;;;;;50.20;31.70;;;;;;;5.44;100.00;99545.19;5004802;28;20072;-70
2023/03/08 03:10:37;;;;;;;45.58;34.05;;;;;;;4.92;100.00;99517.94;5002234;28;20659;-69
2023/03/08 03:13:05;;;;;;;50.78;26.33;;;;;;;6.07;100.00;99667.94;5005569;28;20038;-70
2023/03/08 03:15:30;;;;;;;28.65;19.08;;;;;;;5.40;100.00;99527.81;5007095;28;20039;-70
2023/03/08 03:17:56;;;;;;;47.88;33.00;;;;;;;5.42;100.00;99518.28;5005192;28;20057;-70
2023/03/08 03:20:22;;;;;;;58.25;36.92;;;;;;;6.36;100.00;99666.38;5001545;28;20049;-70
2023/03/08 03:22:48;;;;;;;57.90;36.35;;;;;;;6.13;100.00;99628.03;5007025;28;20053;-70
2023/03/08 03:25:13;;;;;;;45.67;22.67;;;;;;;6.08;100.00;99642.78;5007584;28;20145;-70
2023/03/08 03:27:39;;;;;;;38.65;22.48;;;;;;;6.04;100.00;99651.41;5005034;28;20069;-70
2023/03/08 03:30:06;;;;;;;58.33;38.65;;;;;;;5.51;100.00;99543.50;5004063;28;20062;-69
2023/03/08 03:32:32;;;;;;;52.45;34.25;;;;;;;5.89;100.00;99639.16;5000205;28;20041;-70
2023/03/08 03:34:57;;;;;;;44.47;35.25;;;;;;;5.62;100.00;99583.47;5000807;28;20489;-69
2023/03/08 03:37:23;;;;;;;55.72;35.15;;;;;;;5.24;100.00;99480.03;5005669;28;20049;-73
2023/03/08 03:39:48;;;;;;;64.85;24.15;;;;;;;5.48;100.00;99507.91;5004668;28;20034;-71
2023/03/08 03:42:14;;;;;;;51.08;25.10;;;;;;;5.71;100.00;99546.19;5006098;28;20044;-72
2023/03/08 03:44:40;;;;;;;52.55;37.60;;;;;;;6.32;100.00;99657.66;4998118;28;20056;-72
2023/03/08 03:47:06;;;;;;;61.30;35.58;;;;;;;6.16;100.00;99627.19;5004752;28;20064;-71
2023/03/08 03:49:31;;;;;;;47.53;34.70;;;;;;;6.15;100.00;99665.38;5007846;28;20458;-71
2023/03/08 03:51:57;;;;;;;59.28;37.80;;;;;;;6.25;100.00;99676.72;5003837;28;20184;-72
2023/03/08 03:54:22;;;;;;;53.13;34.78;;;;;;;4.77;100.00;99438.94;5004573;28;20072;-72
2023/03/08 03:56:48;;;;;;;49.65;26.05;;;;;;;5.42;100.00;99527.81;5003885;28;20033;-71
2023/03/08 03:59:13;;;;;;;38.20;22.58;;;;;;;5.53;100.00;99577.34;4999655;28;20509;-73
2023/03/08 04:01:39;;;;;;;50.65;34.45;;;;;;;5.38;100.00;99539.91;4998153;28;20037;-71
2023/03/08 04:04:05;;;;;;;51.60;37.45;;;;;;;6.02;100.00;99643.63;5002975;28;20049;-70
2023/03/08 04:06:32;;;;;;;52.75;35.20;;;;;;;5.22;100.00;99502.56;5003233;28;20026;-70
2023/03/08 04:09:04;;;;;;;30.17;19.08;;;;;;;6.15;100.00;99643.69;5010262;28;20417;-70
2023/03/08 04:11:35;;;;;;;41.38;26.88;;;;;;;6.23;100.00;99644.63;4996429;28;20046;-70
2023/03/08 04:14:00;;;;;;;57.60;39.05;;;;;;;6.06;100.00;99645.38;4997866;28;20153;-69
2023/03/08 04:16:29;;;;;;;51.13;36.28;;;;;;;5.99;100.00;99651.41;4993769;28;20557;-70
2023/03/08 04:18:57;;;;;;;35.05;22.65;;;;;;;5.25;100.00;99533.78;5003773;28;20133;-73
2023/03/08 04:21:22;;;;;;;56.88;35.95;;;;;;;5.85;100.00;99635.69;5002823;28;20041;-70
2023/03/08 04:23:48;;;;;;;40.85;24.55;;;;;;;5.93;100.00;99636.59;5003574;28;20050;-70
2023/03/08 04:26:14;;;;;;;41.10;23.92;;;;;;;5.87;100.00;99635.66;5003979;28;20041;-70
2023/03/08 04:28:40;;;;;;;62.40;39.15;;;;;;;5.33;100.00;99538.16;5002157;28;20065;-71
2023/03/08 04:31:12;;;;;;;53.47;36.75;;;;;;;5.95;100.00;99662.69;5023000;28;20458;-71
2023/03/08 04:33:37;;;;;;;32.35;24.63;;;;;;;5.94;100.00;99660.91;4977544;28;20069;-70
2023/03/08 04:36:03;;;;;;;58.95;36.70;;;;;;;5.94;100.00;99653.09;5007535;28;20041;-70
2023/03/08 04:38:32;;;;;;;62.38;36.15;;;;;;;5.15;100.00;99547.59;4999697;28;20132;-71
2023/03/08 04:41:00;;;;;;;36.15;22.67;;;;;;;5.97;100.00;99667.88;5005273;28;20053;-72
2023/03/08 04:43:26;;;;;;;39.47;24.52;;;;;;;4.62;100.00;99460.50;4996683;28;20071;-72
2023/03/08 04:45:52;;;;;;;47.25;23.38;;;;;;;5.15;100.00;99539.78;5002054;28;20505;-73
2023/03/08 04:48:17;;;;;;;50.20;34.78;;;;;;;5.44;100.00;99572.94;4993678;28;20031;-72
2023/03/08 04:50:43;;;;;;;56.03;35.28;;;;;;;5.47;100.00;99591.16;5000186;28;20046;-72
2023/03/08 04:53:08;;;;;;;38.50;24.55;;;;;;;5.65;100.00;99627.72;4999111;28;20057;-72
2023/03/08 04:55:37;;;;;;;57.28;26.63;;;;;;;5.96;100.00;99680.03;4998563;28;20070;-71
2023/03/08 04:58:02;;;;;;;42.60;23.67;;;;;;;5.39;100.00;99611.06;4994277;28;20101;-71
2023/03/08 05:00:28;;;;;;;62.58;36.28;;;;;;;5.76;100.00;99663.34;5005580;28;20555;-72
2023/03/08 05:02:53;;;;;;;53.17;35.95;;;;;;;6.04;100.00;99680.97;4998095;28;20076;-72
2023/03/08 05:05:19;;;;;;;50.33;39.05;;;;;;;6.05;100.00;99695.72;5002987;28;20073;-71
2023/03/08 05:07:44;;;;;;;40.38;25.50;;;;;;;5.33;100.00;99562.44;4997660;28;20054;-72
2023/03/08 05:10:10;;;;;;;49.67;27.10;;;;;;;5.44;100.00;99567.72;4991338;28;20088;-71
2023/03/08 05:12:35;;;;;;;58.33;28.70;;;;;;;6.34;100.00;99702.81;4994717;28;20042;-71
2023/03/08 05:15:01;;;;;;;68.65;41.80;;;;;;;6.22;100.00;99676.72;4998747;28;20057;-71
2023/03/08 05:17:26;;;;;;;52.20;39.15;;;;;;;5.60;100.00;99586.94;5002497;28;20050;-69
2023/03/08 05:19:52;;;;;;;62.03;40.50;;;;;;;5.48;100.00;99546.09;5002611;28;20034;-69
2023/03/08 05:22:17;;;;;;;43.30;27.05;;;;;;;6.18;100.00;99714.91;5000573;28;20057;-69
2023/03/08 05:24:43;;;;;;;59.45;25.58;;;;;;;5.51;100.00;99569.50;5000773;28;20025;-71
2023/03/08 05:27:08;;;;;;;40.08;24.95;;;;;;;5.69;100.00;99568.78;5000457;28;20134;-71
2023/03/08 05:29:35;;;;;;;52.78;39.58;;;;;;;5.73;100.00;99557.50;5000100;28;20034;-70
2023/03/08 05:32:02;;;;;;;91.85;52.95;;;;;;;6.73;100.00;99716.94;5004926;28;20054;-72
2023/03/08 05:34:28;;;;;;;69.05;30.90;;;;;;;6.60;100.00;99717.72;5008134;28;20074;-72
2023/03/08 05:36:54;;;;;;;72.38;44.92;;;;;;;6.52;100.00;99678.59;4993617;28;20125;-71
2023/03/08 05:39:19;;;;;;;71.53;42.50;;;;;;;6.08;100.00;99585.47;4999424;28;20046;-71
2023/03/08 05:41:45;;;;;;;50.47;28.88;;;;;;;6.81;100.00;99664.81;5003142;28;20132;-70
2023/03/08 05:44:10;;;;;;;76.00;40.65;;;;;;;6.41;100.00;99566.50;4988616;28;20041;-73
2023/03/08 05:46:39;;;;;;;60.58;38.60;;;;;;;7.19;100.00;99694.47;5003925;28;20137;-72
2023/03/08 05:49:05;;;;;;;56.20;39.45;;;;;;;6.79;100.00;99585.72;5003312;28;20402;-73
2023/03/08 05:51:30;;;;;;;55.03;39.63;;;;;;;7.76;100.00;99723.25;5002781;28;20104;-73
2023/03/08 05:53:56;;;;;;;68.38;42.03;;;;;;;7.89;100.00;99736.31;5000739;28;20506;-73
2023/03/08 05:56:23;;;;;;;63.50;39.90;;;;;;;7.85;100.00;99721.53;4999200;28;20049;-70
2023/03/08 05:58:49;;;;;;;71.18;40.08;;;;;;;7.42;100.00;99614.47;4999203;28;20073;-71
2023/03/08 06:01:18;;;;;;;56.72;41.38;;;;;;;8.23;100.00;99751.09;5013900;28;20138;-72
2023/03/08 06:03:45;;;;;;;69.03;38.72;;;;;;;8.25;100.00;99724.97;5001040;28;20124;-71
2023/03/08 06:06:11;;;;;;;55.30;39.88;;;;;;;7.70;100.00;99603.16;5003009;28;20054;-70
2023/03/08 06:08:36;;;;;;;53.75;38.78;;;;;;;7.91;100.00;99630.06;4994790;28;20069;-71
2023/03/08 06:11:02;;;;;;;58.45;36.22;;;;;;;8.09;100.00;99650.94;5001041;28;20042;-71
2023/03/08 06:13:28;;;;;;;62.90;35.33;;;;;;;8.78;100.00;99764.94;5001527;28;20116;-70
2023/03/08 06:15:55;;;;;;;53.05;36.35;;;;;;;8.84;100.00;99770.16;5002664;28;20136;-71
2023/03/08 06:18:21;;;;;;;51.05;33.83;;;;;;;8.83;100.00;99745.75;5003160;28;20045;-71
2023/03/08 06:21:21;;;;;;;54.00;33.83;;;;;;;8.30;100.00;99654.38;5005016;28;20053;-74
2023/03/08 06:23:48;;;;;;;38.90;30.13;;;;;;;8.55;100.00;99687.44;5007388;28;20073;-72
2023/03/08 06:26:14;;;;;;;36.78;26.80;;;;;;;9.11;100.00;99795.38;5011721;28;20165;-72
2023/03/08 06:28:40;;;;;;;43.28;27.33;;;;;;;8.36;100.00;99657.00;4995557;28;20095;-73
2023/03/08 06:31:07;;;;;;;36.45;25.95;;;;;;;9.25;100.00;99803.16;5000043;28;20363;-72
2023/03/08 06:33:33;;;;;;;39.97;29.08;;;;;;;8.15;100.00;99643.09;5001208;28;20077;-72
2023/03/08 06:36:11;;;;;;;38.55;26.73;;;;;;;8.94;100.00;99792.78;5009349;28;20111;-72
2023/03/08 06:38:38;;;;;;;49.10;29.52;;;;;;;8.75;100.00;99718.75;5005228;28;21572;-70
2023/03/08 06:41:05;;;;;;;61.78;31.38;;;;;;;8.70;100.00;99670.81;5004797;28;20057;-73
2023/03/08 06:43:31;;;;;;;42.05;29.10;;;;;;;9.36;100.00;99771.69;5002585;28;20046;-73
2023/03/08 06:45:56;;;;;;;43.70;28.92;;;;;;;9.60;100.00;99804.69;5003550;28;20087;-69
2023/03/08 06:48:22;;;;;;;37.25;26.15;;;;;;;8.88;100.00;99686.44;4994985;28;20236;-70
2023/03/08 06:50:48;;;;;;;40.55;28.33;;;;;;;9.60;100.00;99794.22;5001806;28;20060;-69
2023/03/08 06:53:14;;;;;;;39.13;28.70;;;;;;;9.43;100.00;99769.00;5002137;28;20054;-70
2023/03/08 06:55:40;;;;;;;45.38;28.88;;;;;;;9.62;100.00;99793.38;5004090;28;20061;-70
2023/03/08 06:58:06;;;;;;;35.78;27.27;;;;;;;9.63;100.00;99812.56;5001214;28;20069;-69
2023/03/08 07:00:32;;;;;;;34.85;23.75;;;;;;;9.48;100.00;99816.13;5009165;28;20049;-69
2023/03/08 07:02:58;;;;;;;43.80;27.75;;;;;;;9.77;100.00;99810.72;5003776;28;20041;-70
2023/03/08 07:05:23;;;;;;;40.15;24.83;;;;;;;9.13;100.00;99693.25;4997622;28;20141;-70
2023/03/08 07:07:49;;;;;;;29.27;22.27;;;;;;;9.14;100.00;99719.44;5006231;28;20414;-69
2023/03/08 07:10:16;;;;;;;29.02;21.23;;;;;;;9.36;100.00;99750.72;5005298;28;20151;-69
2023/03/08 07:12:47;;;;;;;37.67;24.23;;;;;;;9.79;100.00;99808.97;5014334;28;20137;-69
2023/03/08 07:15:14;;;;;;;31.52;21.70;;;;;;;9.42;100.00;99728.00;5002377;28;20077;-70
2023/03/08 07:17:42;;;;;;;39.55;24.40;;;;;;;9.81;100.00;99806.31;5001557;28;20049;-68
2023/03/08 07:20:13;;;;;;;41.97;26.20;;;;;;;9.47;100.00;99730.59;4999580;28;20644;-67
2023/03/08 07:22:40;;;;;;;40.03;28.70;;;;;;;10.15;100.00;99827.91;5003763;28;20052;-70
2023/03/08 07:25:07;;;;;;;38.38;26.60;;;;;;;9.92;100.00;99813.22;5003282;28;20046;-72
2023/03/08 07:27:33;;;;;;;56.22;29.20;;;;;;;9.71;100.00;99753.13;5011449;28;20034;-71
2023/03/08 07:29:59;;;;;;;43.13;27.80;;;;;;;10.32;100.00;99833.06;4997408;28;20453;-74
2023/03/08 07:32:27;;;;;;;45.42;30.20;;;;;;;9.85;100.00;99755.63;4997272;28;20070;-70
2023/03/08 07:34:56;;;;;;;43.20;30.58;;;;;;;10.14;100.00;99782.50;4998463;28;20061;-70
2023/03/08 07:37:22;;;;;;;46.42;29.95;;;;;;;10.09;100.00;99754.56;5000480;28;20042;-73
2023/03/08 07:39:48;;;;;;;46.08;30.83;;;;;;;10.54;100.00;99842.50;4999760;28;20080;-71
2023/03/08 07:42:13;;;;;;;36.70;26.80;;;;;;;10.03;100.00;99720.56;5006899;28;20042;-70
2023/03/08 07:44:39;;;;;;;47.97;29.58;;;;;;;10.47;100.00;99767.38;5003726;28;20397;-69
2023/03/08 07:47:05;;;;;;;38.47;27.92;;;;;;;10.99;100.00;99834.16;5005120;28;20045;-72
2023/03/08 07:49:31;;;;;;;41.22;28.08;;;;;;;11.07;100.00;99834.06;5004500;28;20041;-71
2023/03/08 07:51:57;;;;;;;44.60;29.83;;;;;;;10.85;100.00;99776.56;5007008;28;20044;-71
2023/03/08 07:54:22;;;;;;;40.55;26.15;;;;;;;10.60;100.00;99726.13;5005333;28;20486;-71
2023/03/08 07:56:48;;;;;;;46.45;27.50;;;;;;;11.07;100.00;99771.06;5006200;28;20042;-72
2023/03/08 07:59:13;;;;;;;38.60;24.55;;;;;;;11.58;100.00;99863.22;5006109;28;20038;-72
2023/03/08 08:01:39;;;;;;;35.70;21.42;;;;;;;11.56;100.00;99855.34;5002037;28;20490;-71
2023/03/08 08:04:06;;;;;;;34.42;20.50;;;;;;;11.03;100.00;99754.50;5003071;28;20085;-72
2023/03/08 08:06:34;;;;;;;35.20;23.00;;;;;;;11.00;100.00;99736.13;5006113;28;20034;-70
2023/03/08 08:09:00;;;;;;;33.67;20.92;;;;;;;11.82;100.00;99848.88;5001320;28;20125;-71
2023/03/08 08:11:26;;;;;;;29.35;20.25;;;;;;;11.20;100.00;99734.13;5005951;28;20387;-73
2023/03/08 08:13:51;;;;;;;32.40;22.40;;;;;;;11.86;100.00;99821.66;5002573;28;20165;-69
2023/03/08 08:16:17;;;;;;;52.25;25.25;;;;;;;12.02;100.00;99857.38;4999058;28;20505;-70
2023/03/08 08:18:43;;;;;;;28.52;20.58;;;;;;;11.78;100.00;99779.72;4999635;28;20129;-72
2023/03/08 08:21:14;;;;;;;35.03;20.45;;;;;;;11.58;100.00;99739.72;5000961;28;20447;-74
2023/03/08 08:23:40;;;;;;;34.33;20.02;;;;;;;12.00;100.00;99866.19;5002240;28;20049;-74
2023/03/08 08:26:18;;;;;;;32.00;19.95;;;;;;;12.17;100.00;99872.03;5004380;28;20077;-74
2023/03/08 08:28:47;;;;;;;26.17;19.23;;;;;;;11.73;99.91;99760.53;4997565;28;20058;-74
2023/03/08 08:31:17;;;;;;;36.28;19.45;;;;;;;11.88;96.76;99766.47;5000007;28;20097;-74
2023/03/08 08:33:42;;;;;;;25.23;18.42;;;;;;;11.66;96.85;99742.22;5003240;28;20038;-74
2023/03/08 08:36:12;;;;;;;23.88;16.63;;;;;;;12.54;94.08;99850.41;4995752;28;20038;-77
2023/03/08 08:38:38;;;;;;;29.55;16.70;;;;;;;12.61;92.60;99844.13;5001070;28;20495;-75
2023/03/08 08:41:05;;;;;;;31.85;20.38;;;;;;;12.58;90.38;99832.81;4992887;28;20105;-74
2023/03/08 08:43:33;;;;;;;31.90;18.88;;;;;;;12.71;90.65;99863.28;4993951;28;20434;-73
2023/03/08 08:45:59;;;;;;;20.90;16.70;;;;;;;12.17;87.72;99747.56;5002945;28;20049;-74
2023/03/08 08:48:26;;;;;;;26.10;16.58;;;;;;;11.92;90.51;99739.25;5004235;28;20121;-73
2023/03/08 08:50:52;;;;;;;21.75;16.92;;;;;;;12.07;89.51;99764.41;4999819;28;20052;-74
2023/03/08 08:53:18;;;;;;;22.40;16.65;;;;;;;11.90;89.61;99705.09;4999564;28;20692;-73
2023/03/08 08:55:43;;;;;;;29.90;17.23;;;;;;;12.11;89.14;99745.91;5001656;28;20459;-72
2023/03/08 08:58:09;;;;;;;22.58;14.88;;;;;;;12.96;85.66;99845.28;5003627;28;20148;-74
2023/03/08 09:00:35;;;;;;;36.33;17.70;;;;;;;12.54;84.11;99753.03;5003095;28;20044;-74
2023/03/08 09:03:03;;;;;;;24.25;14.38;;;;;;;12.49;81.90;99738.25;5003443;28;20144;-74
2023/03/08 09:05:28;;;;;;;32.70;17.77;;;;;;;12.89;81.14;99764.66;4995432;28;20848;-74
2023/03/08 09:07:58;;;;;;;22.90;16.85;;;;;;;12.77;80.45;99725.41;4997554;28;20062;-74
2023/03/08 09:10:28;;;;;;;21.05;14.43;;;;;;;12.96;76.73;99763.63;4996920;28;20498;-73
2023/03/08 09:12:54;;;;;;;22.77;13.40;;;;;;;13.12;77.21;99784.41;5000053;28;20680;-72
2023/03/08 09:15:21;;;;;;;18.98;14.27;;;;;;;13.51;76.43;99822.25;5002029;28;20158;-74
2023/03/08 09:17:47;;;;;;;22.05;13.52;;;;;;;13.56;73.73;99804.56;5004626;28;20046;-77
2023/03/08 09:20:14;;;;;;;22.95;13.88;;;;;;;13.94;73.43;99824.78;5008228;28;20098;-79
2023/03/08 09:22:39;;;;;;;17.23;13.38;;;;;;;14.11;72.46;99831.44;5003350;28;20050;-74
2023/03/08 09:25:06;;;;;;;19.27;15.20;;;;;;;14.00;72.59;99781.59;5006256;28;20741;-79
2023/03/08 09:27:32;;;;;;;26.75;15.73;;;;;;;14.15;71.66;99810.22;5005457;28;20080;-78
2023/03/08 09:29:57;;;;;;;19.58;13.85;;;;;;;13.76;69.76;99766.31;5004013;28;20470;-76
2023/03/08 09:32:24;;;;;;;19.15;13.45;;;;;;;13.92;67.91;99791.44;5007216;28;20050;-73
2023/03/08 09:34:50;;;;;;;17.38;12.60;;;;;;;14.27;67.52;99845.13;5007967;28;20054;-75
2023/03/08 09:37:16;;;;;;;19.30;12.55;;;;;;;14.20;67.46;99856.75;5003812;28;20053;-74
2023/03/08 09:39:42;;;;;;;43.65;15.75;;;;;;;14.11;66.72;99841.97;5003762;28;20552;-71
2023/03/08 09:42:19;;;;;;;25.60;13.02;;;;;;;13.45;65.96;99727.50;5003919;28;20142;-72
2023/03/08 09:45:09;;;;;;;35.17;15.00;;;;;;;14.35;65.99;99851.06;4999722;28;20509;-72
2023/03/08 09:47:49;;;;;;;22.35;11.65;;;;;;;13.82;65.93;99737.19;5002589;28;20053;-72
2023/03/08 09:50:21;;;;;;;19.58;11.65;;;;;;;14.33;64.00;99855.56;5003295;28;20068;-73
2023/03/08 09:53:08;;;;;;;13.57;9.02;;;;;;;14.41;63.02;99843.00;4994091;28;20562;-73
2023/03/08 09:55:40;;;;;;;35.60;11.82;;;;;;;13.93;63.91;99749.22;4998935;28;20042;-73
2023/03/08 09:58:29;;;;;;;18.33;11.68;;;;;;;14.45;62.75;99842.03;5005688;28;20213;-74
2023/03/08 10:01:03;;;;;;;26.10;12.32;;;;;;;14.33;62.96;99773.72;4998625;28;20120;-73
2023/03/08 10:03:43;;;;;;;19.98;10.85;;;;;;;14.52;61.98;99811.94;5006634;28;20030;-73
2023/03/08 10:06:18;;;;;;;19.42;13.30;;;;;;;14.50;63.76;99776.78;4998994;28;20075;-73
2023/03/08 10:09:03;;;;;;;20.23;11.82;;;;;;;14.78;62.28;99806.00;4999257;28;20189;-73
2023/03/08 10:12:15;;;;;;;16.38;12.07;;;;;;;14.42;61.04;99733.00;4996825;28;20776;-74
2023/03/08 10:14:48;;;;;;;19.90;11.13;;;;;;;13.93;61.48;99656.91;4998850;28;20046;-73
2023/03/08 10:17:23;;;;;;;20.95;13.32;;;;;;;14.81;61.03;99822.66;5001441;28;20054;-73
2023/03/08 10:19:58;;;;;;;22.13;11.35;;;;;;;14.96;61.38;99830.16;5005257;28;20050;-72
2023/03/08 10:22:30;;;;;;;17.52;11.75;;;;;;;14.95;59.88;99810.81;5003551;28;20650;-73
2023/03/08 10:25:01;;;;;;;14.57;10.85;;;;;;;14.94;58.96;99846.06;5007643;28;20050;-73
2023/03/08 10:27:31;;;;;;;22.55;11.05;;;;;;;14.47;59.10;99742.56;5006011;28;20034;-73
2023/03/08 10:29:59;;;;;;;22.63;12.25;;;;;;;14.13;58.19;99660.78;5002191;28;20049;-74
2023/03/08 10:32:27;;;;;;;18.05;9.48;;;;;;;15.26;57.23;99824.94;5004638;28;20049;-73
2023/03/08 10:35:00;;;;;;;12.23;8.70;;;;;;;15.07;57.10;99820.16;5006583;28;20470;-73
2023/03/08 10:37:29;;;;;;;;;;;;;;;15.23;57.18;99817.97;4997611;28;20050;-73
2023/03/08 10:39:56;;;;;;;14.38;7.65;;;;;;;14.90;55.76;99753.75;5001038;28;20000;-73
2023/03/08 10:42:24;;;;;;;13.73;8.07;;;;;;;14.66;55.39;99691.94;5007608;28;20057;-74
2023/03/08 10:44:54;;;;;;;20.13;8.50;;;;;;;15.71;54.57;99822.75;5007494;28;20038;-73
2023/03/08 10:47:29;;;;;;;17.45;8.07;;;;;;;14.66;54.61;99710.41;5006150;28;20409;-73
2023/03/08 10:50:19;;;;;;;18.58;7.43;;;;;;;15.30;55.28;99816.00;4999505;28;21247;-73
2023/03/08 10:52:46;;;;;;;10.70;6.07;;;;;;;14.40;53.33;99700.50;5000583;28;20149;-72
2023/03/08 10:55:14;;;;;;;12.50;6.50;;;;;;;15.34;52.91;99812.38;5007083;28;20075;-73
2023/03/08 10:57:55;;;;;;;8.90;5.45;;;;;;;15.52;51.88;99813.59;5000858;28;20449;-72
2023/03/08 11:00:21;;;;;;;10.43;6.38;;;;;;;15.63;51.33;99814.13;5007331;28;20466;-74
2023/03/08 11:02:47;;;;;;;21.15;5.68;;;;;;;15.09;52.38;99664.22;5005722;28;20052;-74
2023/03/08 11:05:17;;;;;;;16.02;6.95;;;;;;;15.64;50.46;99781.50;5005225;28;20054;-72
2023/03/08 11:07:50;;;;;;;10.65;5.00;;;;;;;15.63;50.10;99679.25;5007916;28;20054;-74
2023/03/08 11:10:18;;;;;;;10.43;5.55;;;;;;;16.66;50.21;99769.31;5002951;28;20048;-72
2023/03/08 11:12:45;;;;;;;9.88;5.28;;;;;;;16.63;49.98;99760.63;5005679;28;20064;-75
2023/03/08 11:15:19;;;;;;;22.33;6.30;;;;;;;16.79;50.19;99763.63;5008247;28;20746;-73
2023/03/08 11:17:52;;;;;;;7.70;4.75;;;;;;;16.59;49.25;99772.22;4993909;28;20173;-74
2023/03/08 11:20:30;;;;;;;9.18;5.85;;;;;;;17.10;50.30;99773.97;5005947;28;20125;-73